Time;durP1;ratioP1;P1;durP2;ratioP2;P2;SDS_P1;SDS_P2;PMS_P1;PMS_P2;Temp;Humidity;BMP_temperature;BMP_pressure;BME280_temperature;BME280_humidity;BME280_pressure;Samples;Min_cycle;Max_cycle;Signal;HPM_P1;HPM_P2
2022/11/22 00:00:27;;;;;;;;;;;21.00;87.60;;;;;;5095582;28;19908;-51
2022/11/22 00:02:52;;;;;;;;;;;21.00;87.50;;;;;;5095501;28;20337;-48
2022/11/22 00:05:18;;;;;;;;;;;21.00;87.50;;;;;;5095367;28;20011;-51
2022/11/22 00:07:44;;;;;;;;;;;21.00;87.60;;;;;;5095662;28;19918;-50
2022/11/22 00:10:10;;;;;;;;;;;21.00;87.50;;;;;;5094877;28;20409;-52
2022/11/22 00:12:36;;;;;;;;;;;21.00;87.50;;;;;;5095270;28;19908;-50
2022/11/22 00:15:01;;;;;;;;;;;20.90;87.50;;;;;;5095235;28;19915;-52
2022/11/22 00:17:26;;;;;;;;;;;21.00;87.70;;;;;;5094992;28;20378;-49
2022/11/22 00:19:52;;;;;;;;;;;21.00;87.70;;;;;;5095094;28;20003;-51
2022/11/22 00:22:17;;;;;;;;;;;20.90;87.70;;;;;;5095132;28;19912;-50
2022/11/22 00:24:45;;;;;;;;;;;20.90;87.80;;;;;;5095046;28;19972;-51
2022/11/22 00:27:10;;;;;;;;;;;20.90;87.80;;;;;;5094654;28;19998;-49
2022/11/22 00:29:36;;;;;;;;;;;20.90;87.80;;;;;;5094615;28;20009;-52
2022/11/22 00:32:01;;;;;;;;;;;20.90;87.80;;;;;;5094861;28;19915;-52
2022/11/22 00:34:27;;;;;;;;;;;20.90;87.90;;;;;;5094831;28;19970;-52
2022/11/22 00:36:52;;;;;;;;;;;20.90;87.90;;;;;;5094778;28;19908;-51
2022/11/22 00:39:18;;;;;;;;;;;20.90;87.80;;;;;;5094775;28;19912;-50
2022/11/22 00:41:43;;;;;;;;;;;20.90;87.80;;;;;;5094719;28;20378;-53
2022/11/22 00:44:09;;;;;;;;;;;20.90;87.90;;;;;;5094647;28;20034;-50
2022/11/22 00:46:34;;;;;;;;;;;20.90;87.90;;;;;;5094659;28;19912;-51
2022/11/22 00:48:59;;;;;;;;;;;20.90;88.40;;;;;;5094241;28;19961;-50
2022/11/22 00:51:25;;;;;;;;;;;20.90;87.90;;;;;;5094616;28;20011;-52
2022/11/22 00:53:50;;;;;;;;;;;21.00;87.70;;;;;;5094540;28;20351;-54
2022/11/22 00:56:16;;;;;;;;;;;21.00;87.70;;;;;;5094537;28;19976;-54
2022/11/22 00:58:41;;;;;;;;;;;21.00;87.50;;;;;;5094576;28;20416;-51
2022/11/22 01:01:07;;;;;;;;;;;21.00;87.60;;;;;;5094403;28;19908;-53
2022/11/22 01:03:32;;;;;;;;;;;21.00;87.50;;;;;;5094226;28;19915;-50
2022/11/22 01:05:58;;;;;;;;;;;21.00;87.50;;;;;;5094099;28;20003;-53
2022/11/22 01:08:23;;;;;;;;;;;21.00;87.40;;;;;;5094183;28;19924;-54
2022/11/22 01:10:53;;;;;;;;;;;21.00;87.40;;;;;;5093952;28;19935;-51
2022/11/22 01:13:19;;;;;;;;;;;21.00;87.40;;;;;;5093939;28;19909;-49
2022/11/22 01:15:44;;;;;;;;;;;21.00;87.40;;;;;;5094168;28;19908;-53
2022/11/22 01:18:10;;;;;;;;;;;21.00;87.40;;;;;;5076109;28;20010;-52
2022/11/22 01:20:39;;;;;;;;;;;21.00;87.40;;;;;;5093090;28;21253;-52
2022/11/22 01:23:04;;;;;;;;;;;21.00;87.40;;;;;;5094426;28;19908;-51
2022/11/22 01:25:30;;;;;;;;;;;21.00;87.50;;;;;;5094016;28;19919;-48
2022/11/22 01:27:55;;;;;;;;;;;21.00;87.50;;;;;;5093735;28;19912;-49
2022/11/22 01:30:20;;;;;;;;;;;21.00;87.50;;;;;;5095691;28;19944;-53
2022/11/22 01:32:46;;;;;;;;;;;21.00;87.50;;;;;;5100857;28;20309;-52
2022/11/22 01:35:11;;;;;;;;;;;21.00;87.50;;;;;;5100537;28;20358;-52
2022/11/22 01:37:37;;;;;;;;;;;21.00;87.50;;;;;;5100378;28;19942;-48
2022/11/22 01:40:02;;;;;;;;;;;21.00;87.50;;;;;;5100414;28;19953;-53
2022/11/22 01:42:46;;;;;;;;;;;21.00;87.60;;;;;;5100324;28;19919;-51
2022/11/22 01:45:30;;;;;;;;;;;20.90;87.50;;;;;;5100574;28;20094;-48
2022/11/22 01:48:06;;;;;;;;;;;21.00;87.70;;;;;;5100664;28;20030;-51
2022/11/22 01:50:34;;;;;;;;;;;20.90;87.60;;;;;;5100579;28;20002;-52
2022/11/22 01:53:02;;;;;;;;;;;20.90;87.70;;;;;;5100634;28;19908;-52
2022/11/22 01:55:28;;;;;;;;;;;21.00;87.70;;;;;;5100291;28;19957;-51
2022/11/22 01:57:54;;;;;;;;;;;21.00;87.70;;;;;;5100234;28;19912;-51
2022/11/22 02:00:19;;;;;;;;;;;21.00;87.70;;;;;;5100557;28;19908;-51
2022/11/22 02:02:45;;;;;;;;;;;21.00;87.60;;;;;;5082341;28;19908;-53
2022/11/22 02:05:12;;;;;;;;;;;21.00;87.50;;;;;;5100411;28;19912;-52
2022/11/22 02:07:55;;;;;;;;;;;21.00;87.60;;;;;;5100183;28;19950;-53
2022/11/22 02:10:22;;;;;;;;;;;21.00;87.50;;;;;;5100519;28;19920;-53
2022/11/22 02:12:47;;;;;;;;;;;21.10;87.60;;;;;;5100695;28;19908;-51
2022/11/22 02:15:13;;;;;;;;;;;21.10;87.50;;;;;;5100440;28;20014;-53
2022/11/22 02:17:38;;;;;;;;;;;21.00;87.50;;;;;;5100081;28;19912;-52
2022/11/22 02:20:05;;;;;;;;;;;21.00;87.70;;;;;;5100370;28;20275;-49
2022/11/22 02:22:36;;;;;;;;;;;21.00;87.70;;;;;;5100359;28;19931;-50
2022/11/22 02:25:13;;;;;;;;;;;21.00;87.60;;;;;;5100244;28;19958;-50
2022/11/22 02:27:39;;;;;;;;;;;21.10;87.60;;;;;;5100387;28;19916;-53
2022/11/22 02:30:05;;;;;;;;;;;21.00;87.70;;;;;;5099920;28;20420;-50
2022/11/22 02:32:30;;;;;;;;;;;21.00;87.60;;;;;;5100162;28;19908;-51
2022/11/22 02:34:56;;;;;;;;;;;21.00;87.80;;;;;;5100243;28;19908;-50
2022/11/22 02:37:22;;;;;;;;;;;21.00;87.80;;;;;;5099959;28;19912;-49
2022/11/22 02:39:50;;;;;;;;;;;21.00;87.70;;;;;;5100554;28;19912;-53
2022/11/22 02:42:15;;;;;;;;;;;21.00;87.80;;;;;;5097154;28;19915;-53
2022/11/22 02:44:41;;;;;;;;;;;21.00;87.80;;;;;;5096617;28;19912;-53
2022/11/22 02:47:06;;;;;;;;;;;21.00;87.80;;;;;;5096608;28;19919;-52
2022/11/22 02:49:32;;;;;;;;;;;21.00;87.70;;;;;;5096938;28;19908;-48
2022/11/22 02:51:57;;;;;;;;;;;21.00;87.80;;;;;;5096906;28;20331;-50
2022/11/22 02:54:23;;;;;;;;;;;21.00;87.90;;;;;;5096755;28;19919;-50
2022/11/22 02:56:48;;;;;;;;;;;21.00;87.90;;;;;;5096774;28;20363;-53
2022/11/22 02:59:14;;;;;;;;;;;21.00;87.90;;;;;;5096720;28;19908;-52
2022/11/22 03:01:40;;;;;;;;;;;20.90;87.90;;;;;;5096630;28;19915;-49
2022/11/22 03:04:05;;;;;;;;;;;21.00;88.00;;;;;;5096795;28;20434;-52
2022/11/22 03:06:31;;;;;;;;;;;21.00;88.10;;;;;;5096271;28;19955;-52
2022/11/22 03:08:56;;;;;;;;;;;20.90;87.90;;;;;;5096286;28;20007;-52
2022/11/22 03:11:22;;;;;;;;;;;20.90;88.00;;;;;;5096182;28;20363;-50
2022/11/22 03:13:48;;;;;;;;;;;20.90;88.10;;;;;;5096452;28;19912;-52
2022/11/22 03:16:13;;;;;;;;;;;20.90;88.20;;;;;;5096679;28;19931;-50
2022/11/22 03:18:39;;;;;;;;;;;20.90;88.20;;;;;;5096355;28;20378;-52
2022/11/22 03:21:06;;;;;;;;;;;20.90;88.20;;;;;;5096041;28;20050;-51
2022/11/22 03:23:32;;;;;;;;;;;20.90;88.20;;;;;;5096269;28;19947;-51
2022/11/22 03:25:57;;;;;;;;;;;20.90;88.30;;;;;;5095874;28;20370;-51
2022/11/22 03:28:22;;;;;;;;;;;20.90;88.20;;;;;;5096464;28;19916;-50
2022/11/22 03:30:48;;;;;;;;;;;20.90;88.30;;;;;;5096248;28;19958;-50
2022/11/22 03:33:13;;;;;;;;;;;20.90;88.30;;;;;;5096114;28;20344;-52
2022/11/22 03:35:39;;;;;;;;;;;20.90;88.30;;;;;;5096031;28;19909;-50
2022/11/22 03:38:05;;;;;;;;;;;20.90;88.30;;;;;;5096003;28;19966;-53
2022/11/22 03:40:31;;;;;;;;;;;20.90;88.20;;;;;;5095858;28;19915;-51
2022/11/22 03:42:57;;;;;;;;;;;20.90;88.30;;;;;;5095925;28;19908;-50
2022/11/22 03:45:23;;;;;;;;;;;20.90;88.30;;;;;;5095470;28;19962;-52
2022/11/22 03:47:48;;;;;;;;;;;20.90;88.30;;;;;;5095458;28;19912;-50
2022/11/22 03:50:14;;;;;;;;;;;20.90;88.30;;;;;;5095751;28;19931;-51
2022/11/22 03:52:40;;;;;;;;;;;20.90;88.30;;;;;;5077536;28;19914;-53
2022/11/22 03:55:05;;;;;;;;;;;20.90;88.30;;;;;;5077173;28;19908;-51
2022/11/22 03:57:31;;;;;;;;;;;20.90;88.30;;;;;;5095611;28;20399;-52
2022/11/22 03:59:56;;;;;;;;;;;20.80;88.30;;;;;;5095539;28;20406;-52
2022/11/22 04:02:21;;;;;;;;;;;20.80;88.30;;;;;;5095472;28;19908;-52
2022/11/22 04:04:47;;;;;;;;;;;20.80;88.50;;;;;;5077105;28;20014;-52
2022/11/22 04:07:12;;;;;;;;;;;20.80;89.10;;;;;;5095135;28;19912;-50
2022/11/22 04:09:38;;;;;;;;;;;20.80;88.70;;;;;;5095447;28;19928;-50
2022/11/22 04:12:03;;;;;;;;;;;20.70;88.70;;;;;;5095512;28;19915;-52
2022/11/22 04:17:39;;;;;;;;;;;20.70;88.80;;;;;;5095002;28;19931;-49
2022/11/22 04:22:43;;;;;;;;;;;20.70;88.80;;;;;;5095181;28;20009;-49
2022/11/22 04:25:14;;;;;;;;;;;20.70;88.60;;;;;;5094643;28;19951;-53
2022/11/22 04:27:39;;;;;;;;;;;20.80;88.50;;;;;;5094957;28;19912;-53
2022/11/22 04:30:05;;;;;;;;;;;20.80;88.50;;;;;;5094937;28;19915;-51
2022/11/22 04:32:46;;;;;;;;;;;20.80;88.40;;;;;;5094555;28;20054;-51
2022/11/22 04:35:13;;;;;;;;;;;20.80;88.20;;;;;;5095115;28;19922;-52
2022/11/22 04:37:38;;;;;;;;;;;20.90;88.30;;;;;;5076636;28;19921;-51
2022/11/22 04:40:04;;;;;;;;;;;20.90;88.20;;;;;;5094766;28;19916;-53
2022/11/22 04:45:30;;;;;;;;;;;20.90;88.30;;;;;;5032089;28;19913;-53
2022/11/22 04:47:58;;;;;;;;;;;20.90;88.10;;;;;;5081286;28;19998;-50
2022/11/22 04:53:08;;;;;;;;;;;20.90;88.10;;;;;;5094276;28;20007;-52
2022/11/22 04:55:33;;;;;;;;;;;20.90;87.90;;;;;;5094178;28;19952;-52
2022/11/22 04:57:59;;;;;;;;;;;20.90;88.00;;;;;;5094666;28;20236;-53
2022/11/22 05:00:26;;;;;;;;;;;20.90;88.50;;;;;;5094516;28;19912;-51
2022/11/22 05:02:51;;;;;;;;;;;20.90;88.00;;;;;;5094404;28;19990;-53
2022/11/22 05:05:17;;;;;;;;;;;20.90;88.00;;;;;;5093481;28;20011;-53
2022/11/22 05:07:42;;;;;;;;;;;20.90;88.10;;;;;;5073098;28;19948;-51
2022/11/22 05:10:08;;;;;;;;;;;20.90;87.90;;;;;;5091604;28;19924;-52
2022/11/22 05:12:34;;;;;;;;;;;20.90;88.10;;;;;;5091768;28;19908;-52
2022/11/22 05:14:59;;;;;;;;;;;20.90;88.00;;;;;;5091908;28;20279;-50
2022/11/22 05:17:25;;;;;;;;;;;20.90;88.00;;;;;;5087407;28;20007;-52
2022/11/22 05:19:50;;;;;;;;;;;20.90;88.00;;;;;;5075862;28;19909;-52
2022/11/22 05:22:16;;;;;;;;;;;21.00;88.10;;;;;;5093962;28;19930;-48
2022/11/22 05:24:41;;;;;;;;;;;21.00;88.00;;;;;;5094021;28;19919;-50
2022/11/22 05:27:06;;;;;;;;;;;21.00;87.90;;;;;;5094076;28;19990;-50
2022/11/22 05:29:32;;;;;;;;;;;21.00;87.90;;;;;;5093792;28;20374;-53
2022/11/22 05:31:57;;;;;;;;;;;21.00;87.90;;;;;;5093794;28;19911;-49
2022/11/22 05:34:23;;;;;;;;;;;21.00;87.80;;;;;;5084194;28;19962;-51
2022/11/22 05:36:48;;;;;;;;;;;21.10;87.80;;;;;;5093612;28;20397;-50
2022/11/22 05:39:14;;;;;;;;;;;21.10;87.60;;;;;;5093401;28;19962;-51
2022/11/22 05:41:54;;;;;;;;;;;21.10;87.60;;;;;;5092130;28;20034;-49
2022/11/22 05:44:20;;;;;;;;;;;21.00;87.60;;;;;;5092608;28;19912;-53
2022/11/22 05:46:45;;;;;;;;;;;21.10;87.60;;;;;;5092125;28;19961;-53
2022/11/22 05:49:11;;;;;;;;;;;21.10;87.60;;;;;;5092167;28;19912;-51
2022/11/22 05:51:36;;;;;;;;;;;21.10;87.60;;;;;;5092105;28;20278;-53
2022/11/22 05:54:02;;;;;;;;;;;21.10;87.60;;;;;;5092417;28;19908;-53
2022/11/22 05:56:27;;;;;;;;;;;21.10;87.50;;;;;;5091342;28;19916;-55
2022/11/22 05:58:53;;;;;;;;;;;21.10;87.50;;;;;;5091653;28;19908;-53
2022/11/22 06:01:19;;;;;;;;;;;21.10;87.60;;;;;;5091539;28;19919;-53
2022/11/22 06:03:45;;;;;;;;;;;21.10;87.70;;;;;;5091675;28;20275;-53
2022/11/22 06:06:10;;;;;;;;;;;21.10;87.70;;;;;;5091632;28;19924;-54
2022/11/22 06:08:37;;;;;;;;;;;21.10;87.80;;;;;;5082642;28;20006;-49
2022/11/22 06:11:07;;;;;;;;;;;21.00;87.70;;;;;;5075550;28;19915;-53
2022/11/22 06:13:36;;;;;;;;;;;21.10;87.70;;;;;;5100413;28;19919;-52
2022/11/22 06:16:03;;;;;;;;;;;21.00;87.80;;;;;;5113889;28;20275;-52
2022/11/22 06:18:29;;;;;;;;;;;21.00;87.70;;;;;;5100394;28;19916;-51
2022/11/22 06:21:02;;;;;;;;;;;21.00;88.00;;;;;;5101431;28;20384;-50
2022/11/22 06:23:27;;;;;;;;;;;21.00;88.10;;;;;;5110851;28;19915;-49
2022/11/22 06:25:56;;;;;;;;;;;21.00;88.10;;;;;;5115525;28;19912;-49
2022/11/22 06:28:22;;;;;;;;;;;21.00;88.10;;;;;;5113044;28;19908;-50
2022/11/22 06:30:47;;;;;;;;;;;21.00;87.10;;;;;;5098201;28;19918;-48
2022/11/22 06:33:13;;;;;;;;;;;21.00;87.10;;;;;;5102415;28;20014;-51
2022/11/22 06:35:38;;;;;;;;;;;20.90;87.10;;;;;;5107398;28;19912;-53
2022/11/22 06:38:04;;;;;;;;;;;20.90;87.40;;;;;;5107245;28;19960;-49
2022/11/22 06:40:29;;;;;;;;;;;21.00;87.90;;;;;;5096004;28;19912;-49
2022/11/22 06:42:55;;;;;;;;;;;20.90;88.10;;;;;;5106926;28;19983;-42
2022/11/22 06:45:20;;;;;;;;;;;20.90;88.30;;;;;;5085256;28;19915;-42
2022/11/22 06:47:45;;;;;;;;;;;20.90;88.30;;;;;;5117117;28;19911;-43
2022/11/22 06:50:11;;;;;;;;;;;20.90;88.30;;;;;;5106969;28;19939;-43
2022/11/22 06:52:36;;;;;;;;;;;20.90;88.40;;;;;;5096477;28;20326;-47
2022/11/22 06:55:02;;;;;;;;;;;20.90;88.50;;;;;;5095925;28;19908;-44
2022/11/22 06:57:27;;;;;;;;;;;21.00;88.60;;;;;;5096187;28;19912;-43
2022/11/22 06:59:53;;;;;;;;;;;20.90;88.60;;;;;;5096637;28;19908;-44
2022/11/22 07:02:18;;;;;;;;;;;21.00;88.70;;;;;;5097921;28;20366;-49
2022/11/22 07:04:44;;;;;;;;;;;21.00;88.70;;;;;;5116740;28;19912;-45
2022/11/22 07:07:09;;;;;;;;;;;21.00;88.80;;;;;;5116632;28;19935;-44
2022/11/22 07:09:37;;;;;;;;;;;21.00;88.70;;;;;;5116698;28;19927;-46
2022/11/22 07:12:03;;;;;;;;;;;21.00;88.80;;;;;;5116671;28;19908;-48
2022/11/22 07:14:29;;;;;;;;;;;21.00;88.70;;;;;;5094358;28;19916;-46
2022/11/22 07:16:54;;;;;;;;;;;21.00;88.70;;;;;;5073703;28;19930;-46
2022/11/22 07:19:20;;;;;;;;;;;21.00;88.60;;;;;;5096063;28;19908;-49
2022/11/22 07:21:45;;;;;;;;;;;21.00;88.70;;;;;;5096386;28;20355;-47
2022/11/22 07:24:11;;;;;;;;;;;21.00;88.60;;;;;;5082465;28;19923;-46
2022/11/22 07:26:36;;;;;;;;;;;21.00;88.60;;;;;;5109078;28;19922;-46
2022/11/22 07:29:02;;;;;;;;;;;21.00;88.60;;;;;;5091240;28;19913;-45
2022/11/22 07:31:28;;;;;;;;;;;21.10;88.60;;;;;;5092878;28;19912;-47
2022/11/22 07:33:57;;;;;;;;;;;21.10;88.60;;;;;;5100426;28;19912;-43
2022/11/22 07:36:23;;;;;;;;;;;21.10;88.70;;;;;;5113937;28;20319;-48
2022/11/22 07:38:49;;;;;;;;;;;21.10;88.50;;;;;;5104833;28;19994;-48
2022/11/22 07:41:15;;;;;;;;;;;21.00;88.60;;;;;;5109865;28;19920;-45
2022/11/22 07:43:40;;;;;;;;;;;21.10;88.60;;;;;;5109804;28;19911;-44
2022/11/22 07:46:10;;;;;;;;;;;21.10;88.60;;;;;;5111915;28;19916;-50
2022/11/22 07:48:35;;;;;;;;;;;21.10;88.60;;;;;;5095341;28;19946;-45
2022/11/22 07:51:04;;;;;;;;;;;21.10;88.70;;;;;;5108148;28;20212;-45
2022/11/22 07:53:30;;;;;;;;;;;21.10;88.70;;;;;;5108713;28;19912;-43
2022/11/22 07:55:56;;;;;;;;;;;21.10;88.60;;;;;;5101010;28;19972;-46
2022/11/22 07:58:22;;;;;;;;;;;21.10;88.70;;;;;;5108839;28;19996;-45
2022/11/22 08:00:47;;;;;;;;;;;21.10;88.70;;;;;;5106384;28;19911;-43
2022/11/22 08:03:13;;;;;;;;;;;21.10;88.70;;;;;;5110226;28;20362;-45
2022/11/22 08:05:38;;;;;;;;;;;21.10;88.60;;;;;;5115476;28;19922;-46
2022/11/22 08:08:04;;;;;;;;;;;21.10;88.70;;;;;;5113036;28;19969;-43
2022/11/22 08:10:29;;;;;;;;;;;21.10;88.60;;;;;;5112026;28;20381;-46
2022/11/22 08:12:57;;;;;;;;;;;21.20;88.60;;;;;;5102569;28;19912;-46
2022/11/22 08:15:22;;;;;;;;;;;21.20;88.50;;;;;;5115559;28;19922;-47
2022/11/22 08:17:48;;;;;;;;;;;21.20;88.50;;;;;;5086823;28;19915;-42
2022/11/22 08:20:13;;;;;;;;;;;21.20;88.40;;;;;;5093098;28;19912;-42
2022/11/22 08:22:39;;;;;;;;;;;21.20;88.50;;;;;;5115586;28;19907;-42
2022/11/22 08:25:11;;;;;;;;;;;21.30;88.40;;;;;;5108620;28;19916;-41
2022/11/22 08:27:37;;;;;;;;;;;21.30;88.30;;;;;;5114829;28;19912;-42
2022/11/22 08:30:03;;;;;;;;;;;21.30;88.20;;;;;;5113035;28;19953;-43
2022/11/22 08:32:28;;;;;;;;;;;21.30;88.20;;;;;;5115150;28;19912;-43
2022/11/22 08:34:54;;;;;;;;;;;21.30;88.20;;;;;;5108393;28;19970;-45
2022/11/22 08:37:19;;;;;;;;;;;21.30;88.20;;;;;;5108056;28;19912;-46
2022/11/22 08:39:44;;;;;;;;;;;21.30;88.20;;;;;;5114300;28;19915;-42
2022/11/22 08:42:10;;;;;;;;;;;21.40;88.10;;;;;;5112278;28;19914;-40
2022/11/22 08:44:35;;;;;;;;;;;21.30;88.20;;;;;;5114781;28;19911;-42
2022/11/22 08:47:01;;;;;;;;;;;21.30;88.30;;;;;;5111149;28;19916;-42
2022/11/22 08:49:26;;;;;;;;;;;21.30;88.20;;;;;;5110354;28;19907;-42
2022/11/22 08:51:52;;;;;;;;;;;21.30;88.30;;;;;;5104581;28;20351;-42
2022/11/22 08:54:17;;;;;;;;;;;21.30;88.80;;;;;;5111333;28;19908;-41
2022/11/22 08:56:42;;;;;;;;;;;21.20;88.30;;;;;;5106948;28;19916;-40
2022/11/22 08:59:08;;;;;;;;;;;21.20;88.60;;;;;;5109629;28;19962;-43
2022/11/22 09:01:33;;;;;;;;;;;21.20;88.70;;;;;;5110912;28;19912;-41
2022/11/22 09:03:59;;;;;;;;;;;21.20;88.80;;;;;;5112402;28;20319;-42
2022/11/22 09:06:24;;;;;;;;;;;21.10;88.70;;;;;;5114388;28;19912;-47
2022/11/22 09:08:50;;;;;;;;;;;21.10;88.70;;;;;;5111092;28;19927;-44
2022/11/22 09:11:17;;;;;;;;;;;21.10;88.70;;;;;;5112757;28;20390;-43
2022/11/22 09:13:43;;;;;;;;;;;21.10;88.70;;;;;;5104223;28;19912;-42
2022/11/22 09:16:10;;;;;;;;;;;21.10;88.80;;;;;;5096193;28;20316;-41
2022/11/22 09:18:36;;;;;;;;;;;21.10;88.70;;;;;;5087803;28;20018;-42
2022/11/22 09:21:03;;;;;;;;;;;21.10;88.70;;;;;;5094028;28;19912;-41
2022/11/22 09:23:28;;;;;;;;;;;21.10;88.70;;;;;;5077672;28;20022;-48
2022/11/22 09:25:58;;;;;;;;;;;21.20;88.70;;;;;;5110567;28;19916;-40
2022/11/22 09:28:23;;;;;;;;;;;21.20;88.70;;;;;;5111799;28;19919;-42
2022/11/22 09:30:49;;;;;;;;;;;21.20;88.70;;;;;;5107123;28;20247;-41
2022/11/22 09:33:14;;;;;;;;;;;21.20;88.60;;;;;;5106889;28;19912;-45
2022/11/22 09:35:40;;;;;;;;;;;21.30;88.60;;;;;;5112128;28;19911;-42
2022/11/22 09:38:07;;;;;;;;;;;21.30;88.50;;;;;;5114219;28;20338;-40
2022/11/22 09:40:33;;;;;;;;;;;21.30;88.40;;;;;;5111748;28;19912;-40
2022/11/22 09:43:05;;;;;;;;;;;21.30;88.50;;;;;;5068267;28;19916;-42
2022/11/22 09:45:41;;;;;;;;;;;21.40;88.20;;;;;;5093413;28;19919;-42
2022/11/22 09:48:12;;;;;;;;;;;21.40;88.10;;;;;;5091206;28;19961;-41
2022/11/22 09:50:46;;;;;;;;;;;21.40;87.90;;;;;;5079908;28;19909;-41
2022/11/22 09:53:24;;;;;;;;;;;21.40;87.90;;;;;;5089604;28;19912;-40
2022/11/22 09:55:56;;;;;;;;;;;21.40;87.90;;;;;;5091736;28;19913;-42
2022/11/22 09:58:24;;;;;;;;;;;21.40;88.10;;;;;;5092865;28;19973;-40
2022/11/22 10:00:51;;;;;;;;;;;21.30;88.10;;;;;;5095373;28;19908;-43
2022/11/22 10:03:35;;;;;;;;;;;21.30;88.10;;;;;;5077153;28;19909;-41
2022/11/22 10:06:03;;;;;;;;;;;21.30;88.30;;;;;;5077704;28;19912;-48
2022/11/22 10:08:53;;;;;;;;;;;21.20;88.20;;;;;;5097370;28;19935;-41
2022/11/22 10:11:21;;;;;;;;;;;21.20;88.30;;;;;;5097334;28;19955;-41
2022/11/22 10:13:51;;;;;;;;;;;21.20;88.50;;;;;;5088869;28;19958;-42
2022/11/22 10:16:20;;;;;;;;;;;21.20;88.30;;;;;;5077265;28;19953;-45
2022/11/22 10:18:46;;;;;;;;;;;21.20;88.40;;;;;;5077147;28;20022;-46
2022/11/22 10:21:12;;;;;;;;;;;21.20;88.50;;;;;;5077121;28;20404;-41
2022/11/22 10:23:39;;;;;;;;;;;21.20;88.30;;;;;;5083339;28;19950;-42
2022/11/22 10:26:07;;;;;;;;;;;21.20;88.40;;;;;;5097446;28;19993;-42
2022/11/22 10:28:40;;;;;;;;;;;21.20;88.30;;;;;;5097210;28;19908;-41
2022/11/22 10:31:41;;;;;;;;;;;21.30;88.40;;;;;;5096734;28;19912;-46
2022/11/22 10:34:13;;;;;;;;;;;21.30;88.40;;;;;;4994915;28;19937;-41
2022/11/22 10:36:45;;;;;;;;;;;21.30;88.40;;;;;;5080666;28;20299;-44
2022/11/22 10:39:14;;;;;;;;;;;21.30;88.40;;;;;;5114038;28;20002;-43
2022/11/22 10:41:58;;;;;;;;;;;21.30;88.30;;;;;;5102072;28;19915;-42
2022/11/22 10:44:30;;;;;;;;;;;21.30;88.20;;;;;;5096660;28;19920;-41
2022/11/22 10:47:08;;;;;;;;;;;21.30;88.20;;;;;;5096632;28;19908;-45
2022/11/22 10:49:39;;;;;;;;;;;21.30;88.10;;;;;;5098927;28;19908;-44
2022/11/22 10:52:12;;;;;;;;;;;21.40;88.10;;;;;;5106968;28;19994;-43
2022/11/22 10:55:04;;;;;;;;;;;21.30;88.10;;;;;;5098811;28;19908;-46
2022/11/22 10:57:50;;;;;;;;;;;21.40;88.10;;;;;;5054851;28;19938;-45
2022/11/22 11:00:15;;;;;;;;;;;21.40;88.10;;;;;;5108072;28;20374;-47
2022/11/22 11:02:41;;;;;;;;;;;21.40;88.00;;;;;;5100843;28;19913;-42
2022/11/22 11:05:09;;;;;;;;;;;21.40;88.00;;;;;;5101222;28;19928;-42
2022/11/22 11:07:37;;;;;;;;;;;21.50;88.00;;;;;;5104954;28;19912;-42
2022/11/22 11:10:03;;;;;;;;;;;21.40;87.90;;;;;;5107507;28;19920;-42
2022/11/22 11:12:32;;;;;;;;;;;21.40;87.80;;;;;;5105667;28;19942;-40
2022/11/22 11:15:16;;;;;;;;;;;21.50;87.80;;;;;;5096170;28;19956;-41
2022/11/22 11:17:44;;;;;;;;;;;21.40;87.90;;;;;;5095740;28;19908;-42
2022/11/22 11:20:18;;;;;;;;;;;21.50;87.90;;;;;;5095829;28;20381;-41
2022/11/22 11:22:43;;;;;;;;;;;21.50;88.00;;;;;;5104497;28;19980;-41
2022/11/22 11:25:30;;;;;;;;;;;21.50;88.00;;;;;;5107257;28;19923;-42
2022/11/22 11:27:58;;;;;;;;;;;21.50;87.80;;;;;;5112398;28;19912;-43
2022/11/22 11:30:24;;;;;;;;;;;21.50;88.10;;;;;;5098968;28;19917;-41
2022/11/22 11:32:54;;;;;;;;;;;21.50;87.60;;;;;;5115778;28;19953;-41
2022/11/22 11:35:25;;;;;;;;;;;21.50;87.80;;;;;;5106261;28;20346;-42
2022/11/22 11:37:51;;;;;;;;;;;21.50;87.60;;;;;;5110285;28;19911;-40
2022/11/22 11:40:24;;;;;;;;;;;21.50;87.70;;;;;;5115167;28;19956;-41
2022/11/22 11:43:10;;;;;;;;;;;21.50;87.50;;;;;;5099048;28;19941;-40
2022/11/22 11:45:35;;;;;;;;;;;21.40;87.40;;;;;;5111656;28;19927;-42
2022/11/22 11:48:01;;;;;;;;;;;21.40;87.80;;;;;;5115799;28;19908;-40
2022/11/22 11:50:28;;;;;;;;;;;21.40;87.70;;;;;;5115706;28;19907;-40
2022/11/22 11:52:55;;;;;;;;;;;21.40;87.70;;;;;;5110890;28;19990;-40
2022/11/22 11:55:21;;;;;;;;;;;21.40;87.70;;;;;;5111901;28;19965;-40
2022/11/22 11:57:47;;;;;;;;;;;21.30;87.10;;;;;;5111055;28;19915;-40
2022/11/22 12:00:20;;;;;;;;;;;21.30;87.00;;;;;;5102266;28;19918;-40
2022/11/22 12:02:48;;;;;;;;;;;21.30;87.30;;;;;;5095342;28;20381;-40
2022/11/22 12:05:13;;;;;;;;;;;21.30;87.30;;;;;;5094895;28;20007;-41
2022/11/22 12:07:42;;;;;;;;;;;21.30;87.30;;;;;;5094868;28;20418;-41
2022/11/22 12:10:26;;;;;;;;;;;21.30;87.30;;;;;;5095438;28;19926;-40
2022/11/22 12:12:55;;;;;;;;;;;21.30;87.30;;;;;;5104060;28;20429;-40
2022/11/22 12:15:34;;;;;;;;;;;21.30;87.20;;;;;;5100069;28;19913;-40
2022/11/22 12:18:18;;;;;;;;;;;21.30;87.20;;;;;;5083449;28;20003;-42
2022/11/22 12:21:02;;;;;;;;;;;21.40;87.20;;;;;;5090773;28;19904;-46
2022/11/22 12:23:31;;;;;;;;;;;21.40;87.20;;;;;;5106120;28;19916;-40
2022/11/22 12:25:56;;;;;;;;;;;21.40;87.20;;;;;;5115222;28;19916;-40
2022/11/22 12:28:23;;;;;;;;;;;21.40;87.10;;;;;;5105622;28;19966;-40
2022/11/22 12:30:54;;;;;;;;;;;21.40;87.10;;;;;;5096972;28;20016;-45
2022/11/22 12:33:23;;;;;;;;;;;21.40;87.10;;;;;;5105037;28;20378;-43
2022/11/22 12:35:52;;;;;;;;;;;21.50;87.30;;;;;;5104954;28;20259;-43
2022/11/22 12:38:26;;;;;;;;;;;21.50;87.10;;;;;;5105751;28;19938;-42
2022/11/22 12:40:54;;;;;;;;;;;21.50;87.10;;;;;;5106797;28;19939;-46
2022/11/22 12:43:32;;;;;;;;;;;21.50;87.10;;;;;;5092505;28;20320;-42
2022/11/22 12:45:59;;;;;;;;;;;21.50;87.10;;;;;;5101645;28;20370;-50
2022/11/22 12:48:44;;;;;;;;;;;21.60;87.30;;;;;;5112810;28;19912;-46
2022/11/22 12:51:29;;;;;;;;;;;21.60;87.30;;;;;;5102629;28;20343;-42
2022/11/22 12:53:58;;;;;;;;;;;21.50;87.20;;;;;;5114387;28;19970;-42
2022/11/22 12:56:28;;;;;;;;;;;21.50;87.40;;;;;;5106389;28;20267;-42
2022/11/22 12:58:53;;;;;;;;;;;21.50;87.40;;;;;;5107978;28;19937;-43
2022/11/22 13:01:31;;;;;;;;;;;21.50;87.60;;;;;;5093818;28;19911;-45
2022/11/22 13:04:09;;;;;;;;;;;21.50;87.60;;;;;;5103233;28;20348;-46
2022/11/22 13:06:40;;;;;;;;;;;21.50;87.60;;;;;;5112004;28;19920;-44
2022/11/22 13:09:11;;;;;;;;;;;21.50;87.70;;;;;;5114427;28;19920;-43
2022/11/22 13:11:41;;;;;;;;;;;21.50;87.80;;;;;;5112174;28;20003;-42
2022/11/22 13:14:12;;;;;;;;;;;21.50;87.70;;;;;;5105263;28;19919;-43
2022/11/22 13:16:38;;;;;;;;;;;21.50;87.80;;;;;;5073406;28;20343;-43
2022/11/22 13:19:04;;;;;;;;;;;21.50;87.90;;;;;;5079754;28;20007;-43
2022/11/22 13:21:33;;;;;;;;;;;21.50;87.90;;;;;;5093834;28;19908;-41
2022/11/22 13:24:16;;;;;;;;;;;21.50;87.90;;;;;;5076689;28;19994;-43
2022/11/22 13:26:48;;;;;;;;;;;21.50;88.10;;;;;;5095410;28;19922;-46
2022/11/22 13:29:21;;;;;;;;;;;21.50;88.00;;;;;;5110958;28;19912;-42
2022/11/22 13:32:22;;;;;;;;;;;21.50;87.80;;;;;;5092936;28;19912;-42
2022/11/22 13:35:06;;;;;;;;;;;21.50;87.90;;;;;;5011527;28;19992;-43
2022/11/22 13:37:55;;;;;;;;;;;21.50;87.80;;;;;;5103280;28;20255;-45
2022/11/22 13:40:23;;;;;;;;;;;21.50;87.80;;;;;;5114146;28;20269;-48
2022/11/22 13:43:24;;;;;;;;;;;21.50;87.90;;;;;;5103674;28;19923;-44
2022/11/22 13:45:51;;;;;;;;;;;21.50;87.80;;;;;;5008760;28;19921;-42
2022/11/22 13:48:35;;;;;;;;;;;21.50;87.80;;;;;;5079990;28;20003;-42
2022/11/22 13:51:01;;;;;;;;;;;21.60;87.80;;;;;;5106023;28;20002;-47
2022/11/22 13:53:31;;;;;;;;;;;21.60;87.70;;;;;;5114119;28;19996;-42
2022/11/22 13:55:57;;;;;;;;;;;21.60;87.70;;;;;;5108302;28;19912;-43
2022/11/22 13:58:23;;;;;;;;;;;21.60;87.70;;;;;;5107663;28;20069;-42
2022/11/22 14:00:58;;;;;;;;;;;21.60;87.60;;;;;;5104399;28;19992;-42
2022/11/22 14:03:38;;;;;;;;;;;21.60;87.60;;;;;;5090599;28;19912;-41
2022/11/22 14:06:14;;;;;;;;;;;21.60;87.60;;;;;;5092340;28;19927;-44
2022/11/22 14:08:41;;;;;;;;;;;21.60;87.70;;;;;;5108674;28;19927;-44
2022/11/22 14:11:06;;;;;;;;;;;21.60;87.60;;;;;;5113894;28;20346;-44
2022/11/22 14:13:37;;;;;;;;;;;21.60;87.60;;;;;;5107929;28;19918;-43
2022/11/22 14:16:06;;;;;;;;;;;21.60;87.70;;;;;;5100073;28;19922;-43
2022/11/22 14:18:39;;;;;;;;;;;21.60;87.70;;;;;;5105245;28;19938;-45
2022/11/22 14:21:13;;;;;;;;;;;21.60;87.70;;;;;;5106427;28;19947;-41
2022/11/22 14:23:51;;;;;;;;;;;21.60;87.80;;;;;;5113674;28;19918;-43
2022/11/22 14:26:22;;;;;;;;;;;21.60;87.90;;;;;;5110409;28;19920;-45
2022/11/22 14:29:01;;;;;;;;;;;21.60;87.70;;;;;;5113480;28;19916;-45
2022/11/22 14:31:31;;;;;;;;;;;21.60;87.80;;;;;;5106675;28;20423;-43
2022/11/22 14:34:12;;;;;;;;;;;21.60;87.80;;;;;;5105354;28;19919;-47